Time;durP1;ratioP1;P1;durP2;ratioP2;P2;SDS_P1;SDS_P2;PMS_P1;PMS_P2;Temp;Humidity;BMP_temperature;BMP_pressure;BME280_temperature;BME280_humidity;BME280_pressure;Samples;Min_cycle;Max_cycle;Signal;HPM_P1;HPM_P2
2021/12/14 00:00:49;;;;;;;26.35;15.65;;;5.60;99.90;;;;;;5001564;28;20553;-78
2021/12/14 00:03:17;;;;;;;27.98;15.75;;;5.90;99.90;;;;;;5000285;28;20034;-79
2021/12/14 00:05:44;;;;;;;28.05;18.83;;;6.00;99.90;;;;;;5004915;28;20037;-79
2021/12/14 00:08:13;;;;;;;26.38;16.92;;;6.00;99.90;;;;;;5003589;28;20041;-79
2021/12/14 00:13:21;;;;;;;18.77;11.63;;;6.10;99.90;;;;;;5001781;28;21832;-78
2021/12/14 00:15:48;;;;;;;18.88;11.18;;;6.30;99.90;;;;;;5001626;28;20029;-78
2021/12/14 00:18:15;;;;;;;19.15;10.95;;;6.40;99.90;;;;;;5001462;28;20030;-78
2021/12/14 00:20:48;;;;;;;19.10;11.70;;;6.50;99.90;;;;;;5004080;28;20041;-78
2021/12/14 00:25:54;;;;;;;22.00;12.43;;;6.80;99.90;;;;;;5005330;28;20069;-78
2021/12/14 00:28:27;;;;;;;23.42;12.98;;;6.80;99.90;;;;;;5005046;28;20073;-78
2021/12/14 00:30:55;;;;;;;21.02;12.52;;;6.90;99.90;;;;;;5002624;28;20018;-79
2021/12/14 00:33:24;;;;;;;23.00;12.80;;;6.90;99.90;;;;;;5004609;28;20034;-78
2021/12/14 00:35:50;;;;;;;17.90;11.40;;;6.90;99.90;;;;;;5007631;28;20029;-78
2021/12/14 00:38:21;;;;;;;19.80;11.45;;;6.90;99.90;;;;;;5006109;28;20033;-78
2021/12/14 00:40:53;;;;;;;19.13;11.15;;;7.00;99.90;;;;;;5006491;28;20046;-79
2021/12/14 00:43:20;;;;;;;19.48;11.18;;;7.00;99.90;;;;;;5000919;28;20026;-79
2021/12/14 00:45:47;;;;;;;17.42;10.52;;;7.00;99.90;;;;;;4999456;28;20057;-78
2021/12/14 00:48:13;;;;;;;16.42;10.38;;;7.00;99.90;;;;;;5000877;28;20028;-78
2021/12/14 00:50:43;;;;;;;16.00;10.10;;;7.00;99.90;;;;;;5003882;28;20030;-78
2021/12/14 00:53:09;;;;;;;17.80;10.48;;;7.00;99.90;;;;;;5009356;28;20526;-79
2021/12/14 00:55:45;;;;;;;19.08;10.80;;;7.10;99.90;;;;;;5009322;28;20033;-78
2021/12/14 00:58:12;;;;;;;18.67;11.77;;;7.20;99.90;;;;;;5009210;28;20030;-78
2021/12/14 01:00:50;;;;;;;19.48;12.23;;;7.20;99.90;;;;;;5009671;28;20073;-78
2021/12/14 01:03:16;;;;;;;21.40;12.85;;;7.10;99.90;;;;;;5008925;28;20033;-78
2021/12/14 01:05:46;;;;;;;21.52;12.45;;;7.10;99.90;;;;;;5011668;28;20030;-79
2021/12/14 01:08:21;;;;;;;23.13;14.88;;;7.00;99.90;;;;;;5010218;28;20026;-78
2021/12/14 01:11:04;;;;;;;25.13;15.80;;;7.00;99.90;;;;;;5004064;28;20030;-79
2021/12/14 01:13:33;;;;;;;24.70;14.38;;;6.90;99.90;;;;;;5001063;28;20034;-79
2021/12/14 01:16:16;;;;;;;21.40;13.57;;;6.80;99.90;;;;;;5008805;28;20033;-78
2021/12/14 01:18:48;;;;;;;19.73;13.35;;;6.80;99.90;;;;;;5007319;28;20033;-78
2021/12/14 01:27:03;;;;;;;15.63;9.73;;;6.70;99.90;;;;;;4982306;28;20050;-78
2021/12/14 01:29:29;;;;;;;14.63;9.55;;;6.80;99.90;;;;;;4992474;28;20041;-78
2021/12/14 01:32:00;;;;;;;16.67;9.75;;;6.90;99.90;;;;;;4993478;28;20065;-78
2021/12/14 01:34:30;;;;;;;14.45;8.82;;;7.00;99.90;;;;;;4993665;28;20034;-79
2021/12/14 01:36:59;;;;;;;14.38;8.63;;;7.10;99.90;;;;;;4993467;28;20110;-78
2021/12/14 01:42:02;;;;;;;15.32;8.90;;;7.20;99.90;;;;;;4993088;28;20502;-78
2021/12/14 01:44:32;;;;;;;14.85;9.13;;;7.20;99.90;;;;;;4990649;28;20030;-79
2021/12/14 01:47:07;;;;;;;16.85;9.18;;;7.30;99.90;;;;;;4993419;28;20101;-78
2021/12/14 01:49:33;;;;;;;15.63;10.93;;;7.20;99.90;;;;;;4994111;28;20026;-79
2021/12/14 01:52:05;;;;;;;16.38;9.80;;;7.20;99.90;;;;;;4993739;28;20026;-78
2021/12/14 01:54:39;;;;;;;16.45;9.50;;;7.20;99.90;;;;;;4994590;28;20619;-78
2021/12/14 01:57:08;;;;;;;16.08;9.10;;;7.20;99.90;;;;;;4992865;28;20544;-79
2021/12/14 01:59:38;;;;;;;14.18;8.80;;;7.10;99.90;;;;;;4992894;28;20556;-79
2021/12/14 02:02:19;;;;;;;14.68;9.60;;;7.10;99.90;;;;;;5012816;28;20049;-78
2021/12/14 02:04:47;;;;;;;14.60;9.48;;;7.00;99.90;;;;;;5016896;28;20117;-79
2021/12/14 02:07:15;;;;;;;16.90;10.23;;;7.00;99.90;;;;;;5015378;28;20113;-78
2021/12/14 02:09:42;;;;;;;14.88;9.38;;;7.00;99.90;;;;;;5015869;28;20402;-79
2021/12/14 02:12:17;;;;;;;14.52;8.90;;;6.90;99.90;;;;;;5015903;28;20410;-79
2021/12/14 02:14:45;;;;;;;12.57;8.10;;;7.00;99.90;;;;;;5010025;28;20014;-78
2021/12/14 02:17:13;;;;;;;16.55;9.52;;;7.00;99.90;;;;;;5015647;28;20578;-79
2021/12/14 02:19:39;;;;;;;15.20;9.38;;;7.00;99.90;;;;;;5016245;28;20034;-78
2021/12/14 02:22:07;;;;;;;12.70;8.63;;;7.00;99.90;;;;;;5016692;28;20026;-78
2021/12/14 02:24:35;;;;;;;15.25;8.90;;;7.00;99.90;;;;;;5016965;28;20025;-79
2021/12/14 02:27:01;;;;;;;15.13;8.95;;;6.90;99.90;;;;;;5013769;28;20076;-78
2021/12/14 02:29:37;;;;;;;16.05;9.95;;;6.90;99.90;;;;;;5007353;28;20021;-79
2021/12/14 02:32:05;;;;;;;13.70;8.95;;;7.00;99.90;;;;;;5008362;28;20032;-78
2021/12/14 02:34:37;;;;;;;16.58;8.07;;;7.00;99.90;;;;;;5012331;28;20388;-78
2021/12/14 02:37:03;;;;;;;13.38;9.02;;;7.00;99.90;;;;;;5013775;28;20026;-78
2021/12/14 02:42:19;;;;;;;13.98;8.60;;;6.90;99.90;;;;;;5006412;28;20413;-79
2021/12/14 02:44:48;;;;;;;13.95;8.70;;;6.80;99.90;;;;;;5001073;28;20018;-79
2021/12/14 02:47:16;;;;;;;14.18;8.32;;;6.80;99.90;;;;;;5006271;28;20038;-78
2021/12/14 02:49:44;;;;;;;15.35;9.25;;;6.70;99.90;;;;;;5008928;28;20022;-78
2021/12/14 02:52:15;;;;;;;13.40;8.57;;;6.90;99.90;;;;;;5011205;28;20100;-79
2021/12/14 02:54:46;;;;;;;13.43;8.55;;;6.90;99.90;;;;;;5007122;28;20057;-78
2021/12/14 02:57:19;;;;;;;13.65;8.75;;;6.90;99.90;;;;;;5012899;28;20384;-79
2021/12/14 02:59:47;;;;;;;15.50;8.88;;;6.90;99.90;;;;;;5001600;28;20422;-78
2021/12/14 03:02:17;;;;;;;13.70;8.70;;;6.90;99.90;;;;;;5005477;28;20054;-78
2021/12/14 03:04:50;;;;;;;16.73;9.90;;;6.80;99.90;;;;;;5009225;28;20067;-78
2021/12/14 03:07:18;;;;;;;16.98;10.25;;;6.70;99.90;;;;;;5008847;28;20029;-78
2021/12/14 03:12:27;;;;;;;15.18;9.73;;;6.70;99.90;;;;;;5014297;28;20095;-78
2021/12/14 03:14:59;;;;;;;17.02;10.85;;;6.70;99.90;;;;;;5013147;28;20552;-78
2021/12/14 03:17:25;;;;;;;18.63;11.50;;;6.70;99.90;;;;;;5004485;28;20036;-79
2021/12/14 03:19:59;;;;;;;17.55;11.82;;;6.60;99.90;;;;;;5008316;28;20034;-78
2021/12/14 03:22:34;;;;;;;19.83;11.75;;;6.40;99.90;;;;;;5011137;28;20442;-79
2021/12/14 03:24:59;;;;;;;16.60;11.60;;;6.40;99.90;;;;;;5010514;28;20025;-79
2021/12/14 03:27:26;;;;;;;17.92;11.27;;;6.50;99.90;;;;;;5006559;28;20097;-79
2021/12/14 03:29:52;;;;;;;19.83;12.07;;;6.50;99.90;;;;;;5004345;28;20105;-79
2021/12/14 03:32:19;;;;;;;16.40;12.00;;;6.50;99.90;;;;;;5005368;28;20038;-79
2021/12/14 03:34:46;;;;;;;19.35;12.82;;;6.50;99.90;;;;;;5009373;28;20117;-79
2021/12/14 03:37:15;;;;;;;15.77;11.25;;;6.50;99.90;;;;;;5011998;28;20561;-79
2021/12/14 03:39:52;;;;;;;22.30;14.07;;;6.50;99.90;;;;;;5015181;28;20097;-78
2021/12/14 03:42:27;;;;;;;23.60;13.95;;;6.30;99.90;;;;;;5012365;28;20079;-78
2021/12/14 03:44:56;;;;;;;22.60;15.43;;;6.00;99.90;;;;;;5004625;28;20017;-79
2021/12/14 03:47:38;;;;;;;23.38;15.23;;;5.70;99.90;;;;;;5005236;28;20047;-78
2021/12/14 03:50:08;;;;;;;23.15;14.85;;;5.50;99.90;;;;;;5007497;28;20122;-79
2021/12/14 03:52:37;;;;;;;19.17;12.77;;;5.30;99.90;;;;;;5010379;28;20018;-78
2021/12/14 03:55:18;;;;;;;23.25;14.63;;;5.30;99.90;;;;;;5015208;28;20026;-79
2021/12/14 03:57:43;;;;;;;23.33;15.50;;;5.40;99.90;;;;;;5008290;28;20054;-79
2021/12/14 04:00:16;;;;;;;25.42;15.55;;;5.30;99.90;;;;;;5015128;28;20061;-79
2021/12/14 04:02:42;;;;;;;18.80;13.15;;;5.20;99.90;;;;;;5012038;28;20006;-78
2021/12/14 04:05:11;;;;;;;20.08;12.43;;;5.20;99.90;;;;;;5014681;28;20042;-79
2021/12/14 04:07:41;;;;;;;29.17;17.65;;;5.40;99.90;;;;;;5014930;28;20030;-78
2021/12/14 04:10:15;;;;;;;24.88;15.52;;;5.40;99.90;;;;;;5014811;28;20030;-79
2021/12/14 04:12:40;;;;;;;26.40;16.88;;;5.00;99.90;;;;;;5014868;28;20049;-78
2021/12/14 04:15:07;;;;;;;23.38;15.57;;;4.80;99.90;;;;;;5014263;28;20481;-78
2021/12/14 04:17:33;;;;;;;22.77;16.65;;;4.60;99.90;;;;;;5012748;28;20026;-79
2021/12/14 04:19:58;;;;;;;24.90;15.95;;;4.50;99.90;;;;;;5013725;28;20507;-79
2021/12/14 04:22:30;;;;;;;22.98;15.70;;;4.50;99.90;;;;;;5014812;28;20041;-78
2021/12/14 04:25:05;;;;;;;25.85;16.63;;;4.50;99.90;;;;;;5015199;28;20544;-79
2021/12/14 04:27:32;;;;;;;24.95;16.50;;;4.60;99.90;;;;;;5014750;28;20033;-79
2021/12/14 04:30:03;;;;;;;23.67;15.82;;;4.60;99.90;;;;;;5013420;28;20071;-78
2021/12/14 04:32:29;;;;;;;24.55;16.40;;;4.50;99.90;;;;;;5001749;28;20022;-79
2021/12/14 04:34:56;;;;;;;19.55;13.15;;;4.60;99.90;;;;;;5005329;28;20188;-78
2021/12/14 04:37:22;;;;;;;18.45;11.70;;;4.60;99.90;;;;;;5007453;28;20041;-78
2021/12/14 04:40:10;;;;;;;18.65;12.50;;;4.90;99.90;;;;;;5004166;28;20074;-78
2021/12/14 04:53:52;;;;;;;24.85;14.95;;;4.80;99.90;;;;;;5003649;28;20037;-78
2021/12/14 04:56:23;;;;;;;24.08;15.70;;;4.50;99.90;;;;;;5004067;28;20026;-78
2021/12/14 04:58:58;;;;;;;24.77;17.00;;;4.40;99.90;;;;;;5007916;28;20034;-78
2021/12/14 05:01:25;;;;;;;27.80;17.00;;;4.30;99.90;;;;;;5011558;28;20030;-78
2021/12/14 05:03:56;;;;;;;28.08;17.40;;;4.30;99.90;;;;;;5007905;28;20014;-78
2021/12/14 05:06:25;;;;;;;25.20;16.90;;;4.20;99.90;;;;;;5010408;28;20548;-79
2021/12/14 05:11:22;;;;;;;23.83;17.27;;;4.00;99.90;;;;;;5010377;28;20104;-78
2021/12/14 05:13:54;;;;;;;26.10;17.80;;;4.00;99.90;;;;;;5014953;28;20103;-79
2021/12/14 05:16:23;;;;;;;25.48;16.52;;;4.00;99.90;;;;;;5014865;28;20053;-78
2021/12/14 05:18:56;;;;;;;25.30;15.98;;;4.00;99.90;;;;;;5014914;28;20127;-78
2021/12/14 05:21:41;;;;;;;24.92;14.07;;;4.00;99.90;;;;;;5018213;28;20441;-79
2021/12/14 05:24:09;;;;;;;21.33;12.70;;;4.20;99.90;;;;;;5016831;28;20398;-79
2021/12/14 05:26:35;;;;;;;20.63;12.35;;;4.50;99.90;;;;;;5011870;28;20062;-79
2021/12/14 05:29:02;;;;;;;19.08;11.38;;;4.60;99.90;;;;;;5014877;28;20080;-78
2021/12/14 05:31:29;;;;;;;18.08;11.68;;;4.90;99.90;;;;;;5014630;28;20037;-79
2021/12/14 05:33:55;;;;;;;17.92;11.07;;;5.10;99.90;;;;;;5015081;28;20080;-78
2021/12/14 05:36:23;;;;;;;15.73;10.75;;;5.20;99.90;;;;;;5015776;28;20514;-78
2021/12/14 05:44:23;;;;;;;18.63;13.07;;;5.40;99.90;;;;;;5012319;28;20065;-79
2021/12/14 05:46:55;;;;;;;20.70;12.95;;;5.40;99.90;;;;;;5010275;28;20070;-79
2021/12/14 05:49:26;;;;;;;22.23;14.55;;;5.40;99.90;;;;;;5011326;28;20038;-79
2021/12/14 05:51:55;;;;;;;24.75;17.40;;;5.40;99.90;;;;;;5007137;28;20046;-78
2021/12/14 05:54:30;;;;;;;23.17;15.85;;;5.40;99.90;;;;;;5008741;28;20544;-79
2021/12/14 05:56:58;;;;;;;28.30;16.98;;;5.40;99.90;;;;;;5013235;28;20061;-79
2021/12/14 05:59:29;;;;;;;24.00;15.25;;;5.30;99.90;;;;;;5009199;28;20036;-76
2021/12/14 06:01:57;;;;;;;23.33;14.88;;;5.30;99.90;;;;;;5014286;28;20042;-79
2021/12/14 06:04:26;;;;;;;27.92;15.15;;;5.30;99.90;;;;;;5014746;28;20038;-83
2021/12/14 06:06:54;;;;;;;33.53;18.23;;;5.30;99.90;;;;;;5014769;28;20054;-80
2021/12/14 06:09:28;;;;;;;39.90;21.27;;;5.30;99.90;;;;;;5017252;28;20025;-80
2021/12/14 06:11:55;;;;;;;;;;;5.30;99.90;;;;;;5013188;28;20026;-81
2021/12/14 06:14:24;;;;;;;38.95;20.10;;;5.30;99.90;;;;;;5013520;28;19909;-81
2021/12/14 06:16:53;;;;;;;37.25;20.35;;;5.30;99.90;;;;;;5014136;28;20080;-81
2021/12/14 06:19:19;;;;;;;30.33;17.75;;;5.30;99.90;;;;;;5014789;28;20398;-80
2021/12/14 06:21:47;;;;;;;34.22;19.15;;;5.30;99.90;;;;;;5015074;28;20029;-81
2021/12/14 06:24:13;;;;;;;39.92;23.60;;;5.30;99.90;;;;;;5016388;28;20048;-81
2021/12/14 06:26:42;;;;;;;36.65;25.10;;;5.30;99.90;;;;;;5011111;28;20014;-81
2021/12/14 06:29:13;;;;;;;34.45;21.52;;;5.30;99.90;;;;;;5014531;28;20034;-82
2021/12/14 06:31:41;;;;;;;27.65;19.00;;;5.30;99.90;;;;;;5012858;28;20030;-82
2021/12/14 06:34:11;;;;;;;28.88;17.33;;;5.30;99.90;;;;;;5014198;28;20031;-82
2021/12/14 06:36:51;;;;;;;24.58;16.13;;;5.30;99.90;;;;;;5015780;28;20018;-83
2021/12/14 06:39:19;;;;;;;25.38;15.68;;;5.40;99.90;;;;;;5016426;28;20049;-82
2021/12/14 06:41:44;;;;;;;24.75;16.15;;;5.30;99.90;;;;;;5010375;28;20113;-81
2021/12/14 06:44:10;;;;;;;28.63;17.25;;;5.30;99.90;;;;;;5014222;28;20104;-80
2021/12/14 06:46:40;;;;;;;28.60;17.05;;;5.30;99.90;;;;;;5010087;28;20046;-81
2021/12/14 06:49:10;;;;;;;26.30;16.98;;;5.30;99.90;;;;;;5014906;28;20045;-83
2021/12/14 06:51:39;;;;;;;28.27;18.38;;;5.30;99.90;;;;;;5015478;28;20030;-81
2021/12/14 06:54:09;;;;;;;27.60;16.92;;;5.40;99.90;;;;;;5014580;28;20033;-76
2021/12/14 06:56:36;;;;;;;26.02;17.17;;;5.40;99.90;;;;;;5011816;28;20029;-76
2021/12/14 06:59:07;;;;;;;28.20;17.13;;;5.40;99.90;;;;;;5014501;28;20046;-75
2021/12/14 07:01:54;;;;;;;25.27;15.88;;;5.40;99.90;;;;;;5012114;28;20041;-76
2021/12/14 07:04:26;;;;;;;26.05;16.25;;;5.50;99.90;;;;;;5009334;28;20022;-75
2021/12/14 07:07:05;;;;;;;26.27;15.65;;;5.40;99.90;;;;;;5006352;28;20037;-75
2021/12/14 07:09:38;;;;;;;24.02;15.13;;;5.50;99.90;;;;;;5008253;28;20032;-78
2021/12/14 07:12:15;;;;;;;23.23;15.43;;;5.40;99.90;;;;;;5004726;28;21143;-78
2021/12/14 07:14:58;;;;;;;25.15;14.77;;;5.40;99.90;;;;;;5001535;28;20029;-74
2021/12/14 07:17:40;;;;;;;26.42;16.02;;;5.40;99.90;;;;;;5012751;28;20045;-74
2021/12/14 07:20:41;;;;;;;24.55;15.00;;;5.40;99.90;;;;;;5014804;28;20034;-74
2021/12/14 07:23:15;;;;;;;31.25;17.23;;;5.40;99.90;;;;;;5009899;28;20034;-74
2021/12/14 07:25:42;;;;;;;30.38;17.20;;;5.30;99.90;;;;;;5015060;28;20030;-74
2021/12/14 07:28:15;;;;;;;27.08;15.88;;;5.40;99.90;;;;;;5008127;28;20061;-74
2021/12/14 07:30:42;;;;;;;26.50;16.38;;;5.40;99.90;;;;;;5007589;28;20022;-74
2021/12/14 07:33:12;;;;;;;25.55;16.08;;;5.40;99.90;;;;;;5006744;28;20041;-74
2021/12/14 07:35:47;;;;;;;23.13;14.07;;;5.50;99.90;;;;;;5003929;28;20130;-74
2021/12/14 07:38:18;;;;;;;23.55;15.25;;;5.50;99.90;;;;;;5014319;28;20113;-75
2021/12/14 07:40:53;;;;;;;22.85;13.70;;;5.50;99.90;;;;;;5012837;28;20046;-74
2021/12/14 07:43:24;;;;;;;23.42;15.50;;;5.60;99.90;;;;;;5015058;28;20030;-74
2021/12/14 07:45:52;;;;;;;24.60;15.93;;;5.60;99.90;;;;;;5014654;28;20584;-75
2021/12/14 07:48:19;;;;;;;26.80;17.25;;;5.60;99.90;;;;;;5015619;28;20037;-74
2021/12/14 07:50:55;;;;;;;30.75;16.67;;;5.70;99.90;;;;;;5010547;28;20491;-74
2021/12/14 07:53:40;;;;;;;26.20;15.45;;;5.70;99.90;;;;;;5013432;28;20390;-74
2021/12/14 07:56:08;;;;;;;30.65;17.25;;;5.80;99.90;;;;;;5014702;28;20099;-74
2021/12/14 07:58:41;;;;;;;35.28;19.63;;;5.90;99.90;;;;;;5014211;28;20029;-74
2021/12/14 08:01:09;;;;;;;35.70;19.60;;;6.00;99.90;;;;;;5015067;28;20423;-74
2021/12/14 08:03:37;;;;;;;31.10;18.75;;;6.00;99.90;;;;;;5015765;28;20025;-74
2021/12/14 08:06:10;;;;;;;31.30;18.92;;;6.10;99.90;;;;;;5007638;28;20429;-74
2021/12/14 08:08:45;;;;;;;33.25;19.33;;;6.20;99.90;;;;;;5007948;28;20022;-74
2021/12/14 08:11:30;;;;;;;31.38;18.50;;;6.30;99.90;;;;;;5009791;28;20048;-74
2021/12/14 08:14:03;;;;;;;29.92;18.60;;;6.50;99.90;;;;;;5011000;28;20372;-74
2021/12/14 08:16:59;;;;;;;29.40;18.10;;;6.70;99.90;;;;;;5011033;28;20030;-74
2021/12/14 08:19:35;;;;;;;27.20;16.15;;;6.90;99.90;;;;;;5002719;28;20041;-74
2021/12/14 08:22:09;;;;;;;25.83;16.73;;;7.10;99.90;;;;;;5002726;28;20026;-75
2021/12/14 08:24:37;;;;;;;26.83;17.38;;;7.30;99.90;;;;;;5009958;28;20030;-75
2021/12/14 08:27:06;;;;;;;26.02;15.60;;;7.50;99.90;;;;;;5001624;28;20027;-74
2021/12/14 08:29:35;;;;;;;27.50;15.90;;;7.80;99.90;;;;;;5004760;28;20028;-74
2021/12/14 08:32:20;;;;;;;29.67;17.02;;;9.20;99.90;;;;;;5005302;28;20076;-75
2021/12/14 08:34:48;;;;;;;25.35;16.50;;;12.60;94.60;;;;;;5006197;28;20044;-75
2021/12/14 08:37:21;;;;;;;27.67;17.20;;;15.30;84.90;;;;;;4999638;28;20456;-75
2021/12/14 08:39:55;;;;;;;27.13;18.98;;;17.10;73.90;;;;;;5006897;28;20033;-75
2021/12/14 08:42:32;;;;;;;26.10;17.52;;;18.10;67.90;;;;;;5008522;28;20034;-75
2021/12/14 08:45:01;;;;;;;19.95;13.20;;;19.10;64.60;;;;;;5010133;28;20072;-75
2021/12/14 08:47:35;;;;;;;18.02;11.35;;;20.10;61.70;;;;;;5009574;28;20383;-75
2021/12/14 08:50:09;;;;;;;16.13;10.07;;;20.40;59.40;;;;;;5008384;28;20022;-75
2021/12/14 08:52:36;;;;;;;16.67;9.43;;;21.20;57.20;;;;;;5010767;28;20026;-75
2021/12/14 08:55:07;;;;;;;15.30;9.48;;;21.30;56.10;;;;;;5008146;28;20022;-75
2021/12/14 08:57:33;;;;;;;14.00;9.38;;;21.70;55.80;;;;;;5007039;28;20479;-75
2021/12/14 09:00:10;;;;;;;16.85;9.80;;;21.50;55.00;;;;;;5010373;28;20065;-75
2021/12/14 09:02:36;;;;;;;14.70;10.20;;;18.50;56.90;;;;;;5010380;28;20033;-75
2021/12/14 09:05:15;;;;;;;15.98;10.13;;;16.40;63.00;;;;;;5008325;28;20514;-75
2021/12/14 09:07:43;;;;;;;17.42;11.13;;;14.80;68.00;;;;;;5008006;28;20026;-74
2021/12/14 09:10:13;;;;;;;18.33;12.50;;;14.20;70.80;;;;;;5007880;28;20036;-75
2021/12/14 09:12:42;;;;;;;18.70;13.07;;;14.10;72.00;;;;;;5009191;28;20376;-75
2021/12/14 09:15:24;;;;;;;19.15;12.25;;;13.70;73.90;;;;;;5004553;28;20040;-74
2021/12/14 09:17:51;;;;;;;16.85;11.10;;;13.50;74.70;;;;;;4999772;28;20374;-76
2021/12/14 09:20:23;;;;;;;14.82;10.40;;;13.40;75.50;;;;;;5004893;28;20030;-75
2021/12/14 09:22:54;;;;;;;14.85;10.18;;;13.10;77.10;;;;;;5006743;28;20502;-75
2021/12/14 09:25:24;;;;;;;15.48;10.00;;;13.00;77.90;;;;;;5004164;28;20026;-74
2021/12/14 09:27:50;;;;;;;17.35;9.30;;;13.00;78.50;;;;;;5010188;28;20085;-74
2021/12/14 09:30:18;;;;;;;16.95;9.00;;;13.00;78.30;;;;;;5008641;28;20037;-75
2021/12/14 09:32:45;;;;;;;16.20;9.05;;;13.10;78.90;;;;;;5002505;28;20033;-75
2021/12/14 09:35:16;;;;;;;12.70;8.48;;;13.20;79.20;;;;;;5009456;28;20399;-75
2021/12/14 09:37:47;;;;;;;15.32;8.77;;;13.20;79.10;;;;;;5011592;28;20026;-74
2021/12/14 09:40:20;;;;;;;15.35;8.95;;;13.30;79.00;;;;;;5014296;28;20056;-74
2021/12/14 09:42:46;;;;;;;14.95;9.07;;;13.30;78.80;;;;;;5013031;28;20025;-75
2021/12/14 09:45:27;;;;;;;16.90;10.07;;;13.40;78.30;;;;;;5007655;28;20049;-74
2021/12/14 09:47:54;;;;;;;16.08;9.90;;;13.50;78.60;;;;;;5004228;28;20079;-74
2021/12/14 09:50:26;;;;;;;15.98;10.02;;;13.60;78.30;;;;;;5007522;28;20091;-74
2021/12/14 09:52:52;;;;;;;15.48;10.07;;;13.50;78.20;;;;;;5017859;28;20112;-75
2021/12/14 09:55:22;;;;;;;18.75;12.38;;;13.50;78.50;;;;;;5016072;28;20034;-75
2021/12/14 09:57:52;;;;;;;20.33;11.63;;;13.60;77.60;;;;;;5017649;28;20076;-74
2021/12/14 10:00:45;;;;;;;20.63;11.80;;;13.70;77.20;;;;;;5016312;28;20041;-75
2021/12/14 10:03:12;;;;;;;20.63;12.40;;;13.70;77.70;;;;;;5016399;28;20037;-74
2021/12/14 10:05:53;;;;;;;18.45;12.02;;;13.70;77.30;;;;;;5014825;28;20034;-74
2021/12/14 10:08:32;;;;;;;17.67;11.35;;;13.70;78.00;;;;;;5015144;28;20033;-74
2021/12/14 10:11:11;;;;;;;19.52;11.05;;;13.80;77.60;;;;;;5017048;28;20069;-74
2021/12/14 10:13:44;;;;;;;18.77;11.00;;;13.90;77.50;;;;;;5010955;28;20030;-74
2021/12/14 10:16:10;;;;;;;18.45;10.70;;;13.70;77.50;;;;;;5014911;28;20052;-75
2021/12/14 10:18:58;;;;;;;21.17;11.32;;;13.80;78.40;;;;;;5015622;28;20501;-75
2021/12/14 10:21:29;;;;;;;21.35;10.95;;;13.80;77.90;;;;;;5015113;28;20040;-75
2021/12/14 10:23:58;;;;;;;20.63;13.30;;;13.70;77.80;;;;;;5014690;28;20022;-74
2021/12/14 10:26:25;;;;;;;19.92;12.70;;;13.90;78.20;;;;;;5013845;28;20040;-75
2021/12/14 10:28:56;;;;;;;19.77;11.88;;;14.00;77.70;;;;;;5008399;28;20089;-75
2021/12/14 10:31:36;;;;;;;17.90;10.93;;;14.00;78.00;;;;;;5012063;28;20037;-74
2021/12/14 10:34:10;;;;;;;18.58;11.90;;;14.10;77.70;;;;;;5011912;28;20076;-74
2021/12/14 10:36:42;;;;;;;16.80;10.93;;;14.10;77.10;;;;;;5008462;28;20025;-75
2021/12/14 10:44:32;;;;;;;21.45;12.00;;;14.30;76.00;;;;;;5005131;28;20048;-74
2021/12/14 10:46:59;;;;;;;17.55;11.95;;;14.50;76.30;;;;;;5008308;28;20491;-75
2021/12/14 10:49:26;;;;;;;20.60;12.13;;;14.50;76.90;;;;;;5011980;28;20022;-76
2021/12/14 10:51:59;;;;;;;21.05;12.10;;;14.50;76.80;;;;;;5010330;28;20471;-75
2021/12/14 10:54:27;;;;;;;24.42;12.73;;;14.60;76.80;;;;;;5007305;28;20040;-75
2021/12/14 10:57:00;;;;;;;20.95;11.88;;;14.80;77.30;;;;;;5005517;28;20026;-75
2021/12/14 10:59:32;;;;;;;18.47;11.97;;;14.80;76.70;;;;;;5003614;28;20033;-75
2021/12/14 11:01:58;;;;;;;19.65;11.63;;;14.90;76.40;;;;;;5008578;28;20026;-75
2021/12/14 11:04:27;;;;;;;24.45;11.80;;;14.90;75.90;;;;;;5012664;28;20100;-75
2021/12/14 11:06:57;;;;;;;19.05;11.48;;;15.00;76.00;;;;;;5009867;28;20072;-75
2021/12/14 11:09:42;;;;;;;17.20;11.80;;;15.10;75.90;;;;;;5007452;28;20017;-75
2021/12/14 11:12:20;;;;;;;21.05;12.30;;;15.20;74.90;;;;;;5007057;28;20025;-75
2021/12/14 11:14:47;;;;;;;21.25;12.35;;;15.40;75.70;;;;;;5001024;28;20058;-75
2021/12/14 11:20:19;;;;;;;18.08;12.18;;;15.70;75.40;;;;;;5009252;28;20044;-74
2021/12/14 11:23:24;;;;;;;20.85;12.75;;;15.90;74.90;;;;;;5007437;28;20041;-75
2021/12/14 11:25:55;;;;;;;17.83;11.23;;;15.90;73.10;;;;;;4982911;28;20031;-75
2021/12/14 11:28:30;;;;;;;17.60;10.20;;;16.00;73.80;;;;;;4987162;28;20045;-75
2021/12/14 11:31:03;;;;;;;18.77;11.00;;;16.10;73.90;;;;;;4985397;28;20507;-75
2021/12/14 11:33:36;;;;;;;18.75;11.25;;;16.40;73.70;;;;;;4982786;28;20026;-75
2021/12/14 11:36:30;;;;;;;20.10;10.82;;;16.50;73.00;;;;;;4983966;28;20053;-75
2021/12/14 11:39:07;;;;;;;15.73;10.15;;;16.50;72.80;;;;;;4988290;28;20042;-74
2021/12/14 11:41:51;;;;;;;17.33;9.68;;;16.70;73.30;;;;;;4981971;28;20121;-74
2021/12/14 11:44:20;;;;;;;;;;;16.80;72.30;;;;;;4983338;28;20401;-75
2021/12/14 11:47:08;;;;;;;15.55;9.13;;;17.00;72.00;;;;;;4986500;28;19980;-74
2021/12/14 11:49:52;;;;;;;13.93;8.98;;;17.10;72.20;;;;;;4976291;28;20488;-75
2021/12/14 11:52:36;;;;;;;11.10;6.88;;;17.10;72.20;;;;;;4987783;28;20069;-75
2021/12/14 11:55:15;;;;;;;;;;;17.30;71.20;;;;;;4986751;28;20042;-74
2021/12/14 11:57:41;;;;;;;9.90;5.85;;;17.40;70.50;;;;;;4990806;28;19916;-74
2021/12/14 12:00:11;;;;;;;10.20;5.60;;;17.50;70.00;;;;;;4966689;28;20038;-74
2021/12/14 12:02:37;;;;;;;8.77;5.63;;;17.60;69.60;;;;;;4995398;28;20169;-75
2021/12/14 12:05:20;;;;;;;10.13;5.80;;;17.70;69.20;;;;;;5015273;28;20516;-75
2021/12/14 12:10:47;;;;;;;9.82;4.68;;;17.90;68.40;;;;;;5010275;28;20096;-74
2021/12/14 12:13:15;;;;;;;7.75;4.57;;;17.90;67.50;;;;;;5011163;28;20466;-74
2021/12/14 12:15:44;;;;;;;6.63;3.95;;;17.90;68.20;;;;;;5012351;28;20462;-74
2021/12/14 12:18:10;;;;;;;9.00;4.82;;;18.10;67.60;;;;;;5013731;28;20121;-74
2021/12/14 12:20:37;;;;;;;9.52;4.97;;;18.30;66.80;;;;;;5007854;28;20489;-75
2021/12/14 12:23:06;;;;;;;8.52;4.90;;;18.40;65.90;;;;;;5011541;28;20034;-75
2021/12/14 12:25:41;;;;;;;8.63;5.18;;;18.60;65.80;;;;;;5009900;28;20434;-75
2021/12/14 12:28:17;;;;;;;8.88;4.80;;;18.80;65.70;;;;;;5011361;28;20026;-75
2021/12/14 12:31:01;;;;;;;7.25;4.68;;;18.90;66.00;;;;;;5012150;28;20533;-76
2021/12/14 12:33:34;;;;;;;8.05;5.10;;;19.10;65.10;;;;;;5012004;28;20113;-76
2021/12/14 12:36:14;;;;;;;9.57;6.23;;;19.10;64.20;;;;;;5011284;28;20371;-76
2021/12/14 12:39:00;;;;;;;10.40;5.68;;;19.20;64.90;;;;;;5026501;28;20172;-76
2021/12/14 12:41:47;;;;;;;8.80;5.20;;;19.30;64.40;;;;;;5004923;28;20423;-76
2021/12/14 12:44:51;;;;;;;10.95;5.78;;;19.40;64.30;;;;;;5004268;28;20125;-76
2021/12/14 12:47:21;;;;;;;8.10;5.43;;;19.40;64.10;;;;;;4981675;28;20207;-76
2021/12/14 12:49:50;;;;;;;9.50;4.65;;;19.40;64.30;;;;;;4986068;28;20030;-76
2021/12/14 12:52:45;;;;;;;7.68;4.30;;;19.50;63.60;;;;;;4985738;28;20038;-81
2021/12/14 12:55:12;;;;;;;;;;;19.40;63.30;;;;;;4978161;28;20109;-75
2021/12/14 12:57:58;;;;;;;9.00;4.97;;;19.90;62.00;;;;;;4983193;28;19918;-76
2021/12/14 13:00:41;;;;;;;6.60;3.97;;;20.60;61.00;;;;;;4992947;28;20072;-76
2021/12/14 13:03:28;;;;;;;8.07;4.32;;;21.50;59.10;;;;;;4984808;28;20113;-76
2021/12/14 13:06:08;;;;;;;7.55;5.10;;;25.30;54.20;;;;;;4983144;28;20487;-76
2021/12/14 13:08:41;;;;;;;6.72;4.47;;;27.90;49.50;;;;;;4980600;28;20039;-76
2021/12/14 13:11:25;;;;;;;8.50;4.30;;;29.40;46.20;;;;;;4987925;28;20031;-74
2021/12/14 13:14:11;;;;;;;9.38;5.55;;;30.60;44.10;;;;;;4980427;28;20048;-74
2021/12/14 13:16:46;;;;;;;6.45;4.07;;;31.40;42.60;;;;;;4978918;28;20083;-74
2021/12/14 13:19:25;;;;;;;9.07;4.80;;;32.00;42.00;;;;;;5009828;28;20034;-74
2021/12/14 13:21:53;;;;;;;9.30;4.65;;;32.60;40.70;;;;;;5015447;28;20034;-75
2021/12/14 13:24:40;;;;;;;10.77;4.90;;;32.70;40.20;;;;;;5018090;28;20093;-74
2021/12/14 13:27:13;;;;;;;8.32;4.25;;;32.40;40.10;;;;;;5015569;28;20026;-73
2021/12/14 13:29:58;;;;;;;8.18;4.20;;;33.10;39.40;;;;;;5004130;28;20037;-74
2021/12/14 13:32:41;;;;;;;7.35;4.10;;;32.90;38.70;;;;;;5007605;28;20117;-75
2021/12/14 13:35:09;;;;;;;;;;;32.10;39.10;;;;;;5008957;28;20471;-75
2021/12/14 13:37:39;;;;;;;7.93;4.75;;;30.70;39.80;;;;;;5011190;28;19909;-74
2021/12/14 13:40:09;;;;;;;7.95;4.25;;;28.00;42.50;;;;;;5006451;28;20376;-74
2021/12/14 13:42:42;;;;;;;7.22;4.63;;;27.40;44.00;;;;;;5006484;28;20496;-74
2021/12/14 13:45:28;;;;;;;6.35;3.97;;;26.90;45.10;;;;;;5005032;28;20160;-74
2021/12/14 13:47:56;;;;;;;7.25;4.45;;;28.00;44.00;;;;;;5002375;28;20026;-74
2021/12/14 13:50:27;;;;;;;7.22;4.18;;;28.10;43.50;;;;;;5006038;28;20125;-75
2021/12/14 13:52:53;;;;;;;6.93;4.05;;;27.30;44.30;;;;;;5010309;28;20081;-75